sensor_id;sensor_type;location;lat;lon;timestamp;pressure;altitude;pressure_sealevel;temperature;humidity
82033;BME280;71595;52.180;4.512;2024-03-02T00:00:08;99784.59;;;7.39;83.21
82033;BME280;71595;52.180;4.512;2024-03-02T00:02:43;99788.34;;;7.34;83.07
82033;BME280;71595;52.180;4.512;2024-03-02T00:05:18;99790.75;;;7.36;83.40
82033;BME280;71595;52.180;4.512;2024-03-02T00:07:45;99789.03;;;7.31;83.03
82033;BME280;71595;52.180;4.512;2024-03-02T00:10:16;99779.19;;;7.30;83.76
82033;BME280;71595;52.180;4.512;2024-03-02T00:12:47;99792.81;;;7.27;83.69
82033;BME280;71595;52.180;4.512;2024-03-02T00:18:11;99790.16;;;7.18;84.54
82033;BME280;71595;52.180;4.512;2024-03-02T00:20:38;99797.94;;;7.16;84.74
82033;BME280;71595;52.180;4.512;2024-03-02T00:23:04;99806.88;;;7.13;85.04
82033;BME280;71595;52.180;4.512;2024-03-02T00:25:44;99821.97;;;7.07;85.05
82033;BME280;71595;52.180;4.512;2024-03-02T00:31:07;99828.94;;;7.04;85.32
82033;BME280;71595;52.180;4.512;2024-03-02T00:33:50;99824.78;;;6.98;84.82
82033;BME280;71595;52.180;4.512;2024-03-02T00:36:22;99817.72;;;6.97;84.78
82033;BME280;71595;52.180;4.512;2024-03-02T00:38:51;99824.00;;;6.97;84.40
82033;BME280;71595;52.180;4.512;2024-03-02T00:41:30;99833.38;;;6.96;84.51
82033;BME280;71595;52.180;4.512;2024-03-02T00:44:03;99822.28;;;6.93;84.72
82033;BME280;71595;52.180;4.512;2024-03-02T00:46:35;99823.75;;;6.90;84.46
82033;BME280;71595;52.180;4.512;2024-03-02T00:49:05;99816.00;;;6.92;84.20
82033;BME280;71595;52.180;4.512;2024-03-02T00:51:37;99826.97;;;6.92;84.08
82033;BME280;71595;52.180;4.512;2024-03-02T00:54:05;99822.41;;;6.96;83.66
82033;BME280;71595;52.180;4.512;2024-03-02T00:56:32;99819.88;;;6.91;83.95
82033;BME280;71595;52.180;4.512;2024-03-02T00:58:58;99822.72;;;6.82;84.28
82033;BME280;71595;52.180;4.512;2024-03-02T01:01:23;99814.00;;;6.80;84.30
82033;BME280;71595;52.180;4.512;2024-03-02T01:03:49;99816.31;;;6.78;84.73
82033;BME280;71595;52.180;4.512;2024-03-02T01:06:16;99821.13;;;6.81;83.10
82033;BME280;71595;52.180;4.512;2024-03-02T01:08:41;99814.69;;;6.77;83.79
82033;BME280;71595;52.180;4.512;2024-03-02T01:11:07;99816.38;;;6.70;83.56
82033;BME280;71595;52.180;4.512;2024-03-02T01:13:32;99810.44;;;6.68;84.21
82033;BME280;71595;52.180;4.512;2024-03-02T01:15:57;99815.25;;;6.71;83.99
82033;BME280;71595;52.180;4.512;2024-03-02T01:18:23;99810.22;;;6.73;83.95
82033;BME280;71595;52.180;4.512;2024-03-02T01:20:49;99814.56;;;6.74;84.31
82033;BME280;71595;52.180;4.512;2024-03-02T01:23:19;99794.22;;;6.75;83.14
82033;BME280;71595;52.180;4.512;2024-03-02T01:25:46;99807.47;;;6.73;83.69
82033;BME280;71595;52.180;4.512;2024-03-02T01:28:12;99819.13;;;6.70;83.83
82033;BME280;71595;52.180;4.512;2024-03-02T01:30:37;99834.00;;;6.69;83.11
82033;BME280;71595;52.180;4.512;2024-03-02T01:33:03;99832.28;;;6.64;83.81
82033;BME280;71595;52.180;4.512;2024-03-02T01:35:31;99823.69;;;6.65;83.06
82033;BME280;71595;52.180;4.512;2024-03-02T01:37:56;99828.13;;;6.58;83.32
82033;BME280;71595;52.180;4.512;2024-03-02T01:40:21;99846.06;;;6.55;83.90
82033;BME280;71595;52.180;4.512;2024-03-02T01:42:46;99861.28;;;6.65;83.27
82033;BME280;71595;52.180;4.512;2024-03-02T01:45:12;99854.06;;;6.60;84.20
82033;BME280;71595;52.180;4.512;2024-03-02T01:47:37;99841.50;;;6.59;84.05
82033;BME280;71595;52.180;4.512;2024-03-02T01:50:03;99832.34;;;6.55;83.56
82033;BME280;71595;52.180;4.512;2024-03-02T01:52:28;99838.94;;;6.54;84.18
82033;BME280;71595;52.180;4.512;2024-03-02T01:54:54;99852.69;;;6.54;83.33
82033;BME280;71595;52.180;4.512;2024-03-02T01:57:20;99847.06;;;6.51;84.78
82033;BME280;71595;52.180;4.512;2024-03-02T01:59:46;99844.44;;;6.54;83.86
82033;BME280;71595;52.180;4.512;2024-03-02T02:02:13;99848.19;;;6.50;83.86
82033;BME280;71595;52.180;4.512;2024-03-02T02:04:39;99858.84;;;6.51;83.75
82033;BME280;71595;52.180;4.512;2024-03-02T02:07:04;99849.13;;;6.54;83.91
82033;BME280;71595;52.180;4.512;2024-03-02T02:09:29;99863.19;;;6.52;82.69
82033;BME280;71595;52.180;4.512;2024-03-02T02:11:55;99854.06;;;6.60;83.29
82033;BME280;71595;52.180;4.512;2024-03-02T02:14:20;99855.22;;;6.59;82.89
82033;BME280;71595;52.180;4.512;2024-03-02T02:16:45;99862.31;;;6.60;83.70
82033;BME280;71595;52.180;4.512;2024-03-02T02:19:11;99851.53;;;6.55;83.53
82033;BME280;71595;52.180;4.512;2024-03-02T02:21:36;99844.44;;;6.54;83.45
82033;BME280;71595;52.180;4.512;2024-03-02T02:24:02;99853.34;;;6.51;84.04
82033;BME280;71595;52.180;4.512;2024-03-02T02:26:29;99854.28;;;6.55;84.19
82033;BME280;71595;52.180;4.512;2024-03-02T02:28:54;99861.06;;;6.58;83.62
82033;BME280;71595;52.180;4.512;2024-03-02T02:31:19;99868.41;;;6.45;83.79
82033;BME280;71595;52.180;4.512;2024-03-02T02:33:45;99861.13;;;6.49;84.54
82033;BME280;71595;52.180;4.512;2024-03-02T02:36:10;99861.56;;;6.51;84.13
82033;BME280;71595;52.180;4.512;2024-03-02T02:38:37;99866.28;;;6.51;84.78
82033;BME280;71595;52.180;4.512;2024-03-02T02:41:03;99863.06;;;6.48;84.34
82033;BME280;71595;52.180;4.512;2024-03-02T02:43:28;99860.09;;;6.54;84.14
82033;BME280;71595;52.180;4.512;2024-03-02T02:45:54;99850.47;;;6.47;84.43
82033;BME280;71595;52.180;4.512;2024-03-02T02:48:19;99855.19;;;6.47;84.20
82033;BME280;71595;52.180;4.512;2024-03-02T02:50:44;99854.63;;;6.54;83.57
82033;BME280;71595;52.180;4.512;2024-03-02T02:53:09;99853.00;;;6.53;84.25
82033;BME280;71595;52.180;4.512;2024-03-02T02:55:35;99857.81;;;6.56;83.82
82033;BME280;71595;52.180;4.512;2024-03-02T02:58:08;99855.41;;;6.54;84.41
82033;BME280;71595;52.180;4.512;2024-03-02T03:00:33;99860.91;;;6.54;84.70
82033;BME280;71595;52.180;4.512;2024-03-02T03:02:58;99846.72;;;6.52;84.37
82033;BME280;71595;52.180;4.512;2024-03-02T03:05:24;99857.69;;;6.52;84.44
82033;BME280;71595;52.180;4.512;2024-03-02T03:07:49;99853.34;;;6.51;84.49
82033;BME280;71595;52.180;4.512;2024-03-02T03:10:15;99847.06;;;6.51;84.16
82033;BME280;71595;52.180;4.512;2024-03-02T03:12:41;99863.31;;;6.56;83.47
82033;BME280;71595;52.180;4.512;2024-03-02T03:15:08;99859.16;;;6.50;83.44
82033;BME280;71595;52.180;4.512;2024-03-02T03:17:34;99866.47;;;6.45;84.11
82033;BME280;71595;52.180;4.512;2024-03-02T03:20:00;99869.22;;;6.45;83.74
82033;BME280;71595;52.180;4.512;2024-03-02T03:22:26;99863.06;;;6.48;84.04
82033;BME280;71595;52.180;4.512;2024-03-02T03:24:52;99870.00;;;6.46;84.09
82033;BME280;71595;52.180;4.512;2024-03-02T03:27:17;99876.44;;;6.50;83.71
82033;BME280;71595;52.180;4.512;2024-03-02T03:29:42;99870.00;;;6.46;84.01
82033;BME280;71595;52.180;4.512;2024-03-02T03:32:08;99875.50;;;6.46;83.28
82033;BME280;71595;52.180;4.512;2024-03-02T03:34:34;99867.94;;;6.43;84.02
82033;BME280;71595;52.180;4.512;2024-03-02T03:36:59;99867.34;;;6.37;84.11
82033;BME280;71595;52.180;4.512;2024-03-02T03:39:24;99874.72;;;6.45;83.68
82033;BME280;71595;52.180;4.512;2024-03-02T03:41:50;99874.72;;;6.45;83.91
82033;BME280;71595;52.180;4.512;2024-03-02T03:44:16;99883.06;;;6.49;83.25
82033;BME280;71595;52.180;4.512;2024-03-02T03:46:41;99890.34;;;6.45;83.94
82033;BME280;71595;52.180;4.512;2024-03-02T03:49:06;99890.00;;;6.46;84.00
82033;BME280;71595;52.180;4.512;2024-03-02T03:51:33;99872.75;;;6.46;84.26
82033;BME280;71595;52.180;4.512;2024-03-02T03:53:58;99886.47;;;6.46;83.75
82033;BME280;71595;52.180;4.512;2024-03-02T03:56:24;99878.25;;;6.46;84.14
82033;BME280;71595;52.180;4.512;2024-03-02T03:58:49;99884.69;;;6.50;84.25
82033;BME280;71595;52.180;4.512;2024-03-02T04:01:14;99885.47;;;6.51;83.91
82033;BME280;71595;52.180;4.512;2024-03-02T04:03:39;99881.94;;;6.50;83.72
82033;BME280;71595;52.180;4.512;2024-03-02T04:06:05;99889.81;;;6.52;84.49
82033;BME280;71595;52.180;4.512;2024-03-02T04:08:30;99889.50;;;6.53;83.61
82033;BME280;71595;52.180;4.512;2024-03-02T04:10:55;99889.94;;;6.55;83.35
82033;BME280;71595;52.180;4.512;2024-03-02T04:13:21;99893.81;;;6.54;83.06
82033;BME280;71595;52.180;4.512;2024-03-02T04:15:46;99899.31;;;6.54;83.15
82033;BME280;71595;52.180;4.512;2024-03-02T04:18:12;99898.31;;;6.59;83.71
82033;BME280;71595;52.180;4.512;2024-03-02T04:20:37;99898.63;;;6.57;83.55
82033;BME280;71595;52.180;4.512;2024-03-02T04:23:02;99898.38;;;6.50;82.96
82033;BME280;71595;52.180;4.512;2024-03-02T04:25:28;99907.00;;;6.40;83.11
82033;BME280;71595;52.180;4.512;2024-03-02T04:27:53;99909.09;;;6.43;83.02
82033;BME280;71595;52.180;4.512;2024-03-02T04:30:19;99897.78;;;6.44;83.52
82033;BME280;71595;52.180;4.512;2024-03-02T04:32:44;99903.06;;;6.50;83.19
82033;BME280;71595;52.180;4.512;2024-03-02T04:35:12;99894.50;;;6.51;82.99
82033;BME280;71595;52.180;4.512;2024-03-02T04:37:40;99895.66;;;6.50;83.28
82033;BME280;71595;52.180;4.512;2024-03-02T04:40:05;99901.47;;;6.48;82.44
82033;BME280;71595;52.180;4.512;2024-03-02T04:42:34;99902.25;;;6.49;83.03
82033;BME280;71595;52.180;4.512;2024-03-02T04:45:00;99902.25;;;6.49;82.63
82033;BME280;71595;52.180;4.512;2024-03-02T04:47:25;99910.69;;;6.44;82.81
82033;BME280;71595;52.180;4.512;2024-03-02T04:49:50;99909.09;;;6.43;82.56
82033;BME280;71595;52.180;4.512;2024-03-02T04:52:16;99913.16;;;6.37;82.66
82033;BME280;71595;52.180;4.512;2024-03-02T04:54:41;99919.09;;;6.39;82.12
82033;BME280;71595;52.180;4.512;2024-03-02T04:57:25;99919.78;;;6.36;82.07
82033;BME280;71595;52.180;4.512;2024-03-02T04:59:50;99925.13;;;6.32;82.52
82033;BME280;71595;52.180;4.512;2024-03-02T05:02:16;99932.91;;;6.30;82.32
82033;BME280;71595;52.180;4.512;2024-03-02T05:04:41;99932.56;;;6.32;82.67
82033;BME280;71595;52.180;4.512;2024-03-02T05:07:06;99925.47;;;6.30;82.53
82033;BME280;71595;52.180;4.512;2024-03-02T05:09:34;99937.72;;;6.33;82.91
82033;BME280;71595;52.180;4.512;2024-03-02T05:11:59;99929.81;;;6.32;82.85
82033;BME280;71595;52.180;4.512;2024-03-02T05:14:42;99932.22;;;6.33;82.38
82033;BME280;71595;52.180;4.512;2024-03-02T05:17:07;99933.03;;;6.34;83.10
82033;BME280;71595;52.180;4.512;2024-03-02T05:19:33;99933.34;;;6.32;82.33
82033;BME280;71595;52.180;4.512;2024-03-02T05:22:01;99935.78;;;6.34;82.37
82033;BME280;71595;52.180;4.512;2024-03-02T05:24:26;99946.75;;;6.34;82.21
82033;BME280;71595;52.180;4.512;2024-03-02T05:26:53;99945.81;;;6.29;82.28
82033;BME280;71595;52.180;4.512;2024-03-02T05:29:18;99944.41;;;6.23;83.07
82033;BME280;71595;52.180;4.512;2024-03-02T05:31:43;99944.41;;;6.23;83.16
82033;BME280;71595;52.180;4.512;2024-03-02T05:34:09;99948.56;;;6.29;83.48
82033;BME280;71595;52.180;4.512;2024-03-02T05:36:34;99949.34;;;6.30;83.15
82033;BME280;71595;52.180;4.512;2024-03-02T05:39:00;99947.72;;;6.29;82.72
82033;BME280;71595;52.180;4.512;2024-03-02T05:41:26;99955.63;;;6.30;82.23
82033;BME280;71595;52.180;4.512;2024-03-02T05:43:51;99955.63;;;6.30;82.65
82033;BME280;71595;52.180;4.512;2024-03-02T05:46:17;99947.94;;;6.24;83.07
82033;BME280;71595;52.180;4.512;2024-03-02T05:48:42;99956.16;;;6.24;82.67
82033;BME280;71595;52.180;4.512;2024-03-02T05:51:07;99955.03;;;6.25;82.60
82033;BME280;71595;52.180;4.512;2024-03-02T05:53:33;99950.53;;;6.20;83.44
82033;BME280;71595;52.180;4.512;2024-03-02T05:55:58;99955.16;;;6.28;82.62
82033;BME280;71595;52.180;4.512;2024-03-02T05:58:24;99951.00;;;6.22;82.80
82033;BME280;71595;52.180;4.512;2024-03-02T06:00:49;99945.84;;;6.21;82.70
82033;BME280;71595;52.180;4.512;2024-03-02T06:03:14;99950.25;;;6.13;82.69
82033;BME280;71595;52.180;4.512;2024-03-02T06:05:40;99943.81;;;6.09;82.79
82033;BME280;71595;52.180;4.512;2024-03-02T06:08:06;99954.31;;;6.07;82.55
82033;BME280;71595;52.180;4.512;2024-03-02T06:10:32;99955.31;;;6.02;82.78
82033;BME280;71595;52.180;4.512;2024-03-02T06:12:57;99957.72;;;5.95;83.00
82033;BME280;71595;52.180;4.512;2024-03-02T06:15:24;99953.56;;;5.98;82.92
82033;BME280;71595;52.180;4.512;2024-03-02T06:17:49;99959.84;;;5.98;83.35
82033;BME280;71595;52.180;4.512;2024-03-02T06:20:15;99958.84;;;6.03;82.58
82033;BME280;71595;52.180;4.512;2024-03-02T06:22:40;99961.59;;;6.03;82.53
82033;BME280;71595;52.180;4.512;2024-03-02T06:25:05;99967.56;;;6.05;82.64
82033;BME280;71595;52.180;4.512;2024-03-02T06:27:31;99963.34;;;6.07;82.91
82033;BME280;71595;52.180;4.512;2024-03-02T06:29:56;99962.69;;;6.10;82.18
82033;BME280;71595;52.180;4.512;2024-03-02T06:32:22;99973.16;;;6.17;82.41
82033;BME280;71595;52.180;4.512;2024-03-02T06:34:48;99981.84;;;6.19;81.91
82033;BME280;71595;52.180;4.512;2024-03-02T06:37:16;99972.06;;;6.09;82.59
82033;BME280;71595;52.180;4.512;2024-03-02T06:39:41;99971.84;;;6.15;81.73
82033;BME280;71595;52.180;4.512;2024-03-02T06:42:07;99970.72;;;6.16;82.21
82033;BME280;71595;52.180;4.512;2024-03-02T06:44:32;99970.56;;;6.12;82.07
82033;BME280;71595;52.180;4.512;2024-03-02T06:46:57;99967.81;;;6.12;81.95
82033;BME280;71595;52.180;4.512;2024-03-02T06:49:23;99979.28;;;6.14;82.09
82033;BME280;71595;52.180;4.512;2024-03-02T06:51:48;99972.00;;;6.18;82.16
82033;BME280;71595;52.180;4.512;2024-03-02T06:54:15;99974.28;;;6.16;82.10
82033;BME280;71595;52.180;4.512;2024-03-02T06:56:40;99979.75;;;6.16;81.80
82033;BME280;71595;52.180;4.512;2024-03-02T06:59:05;99985.22;;;6.16;82.14
82033;BME280;71595;52.180;4.512;2024-03-02T07:01:31;99984.91;;;6.18;81.92
82033;BME280;71595;52.180;4.512;2024-03-02T07:03:56;99992.81;;;6.19;81.55
82033;BME280;71595;52.180;4.512;2024-03-02T07:06:24;99994.13;;;6.13;81.76
82033;BME280;71595;52.180;4.512;2024-03-02T07:08:50;99995.75;;;6.14;81.84
82033;BME280;71595;52.180;4.512;2024-03-02T07:11:15;99996.88;;;6.13;81.98
82033;BME280;71595;52.180;4.512;2024-03-02T07:13:41;99997.97;;;6.12;81.89
82033;BME280;71595;52.180;4.512;2024-03-02T07:16:06;100002.16;;;6.18;81.12
82033;BME280;71595;52.180;4.512;2024-03-02T07:18:51;100008.59;;;6.22;81.08
82033;BME280;71595;52.180;4.512;2024-03-02T07:21:17;100005.38;;;6.20;81.28
82033;BME280;71595;52.180;4.512;2024-03-02T07:23:42;100012.63;;;6.25;81.28
82033;BME280;71595;52.180;4.512;2024-03-02T07:26:08;100017.28;;;6.24;81.39
82033;BME280;71595;52.180;4.512;2024-03-02T07:28:33;100011.97;;;6.28;81.02
82033;BME280;71595;52.180;4.512;2024-03-02T07:31:03;100015.81;;;6.27;80.07
82033;BME280;71595;52.180;4.512;2024-03-02T07:33:30;100015.38;;;6.25;81.16
82033;BME280;71595;52.180;4.512;2024-03-02T07:35:56;100025.34;;;6.29;80.27
82033;BME280;71595;52.180;4.512;2024-03-02T07:38:22;100022.28;;;6.31;80.25
82033;BME280;71595;52.180;4.512;2024-03-02T07:40:48;100025.47;;;6.33;80.75
82033;BME280;71595;52.180;4.512;2024-03-02T07:43:16;100023.31;;;6.39;80.09
82033;BME280;71595;52.180;4.512;2024-03-02T07:45:42;100023.50;;;6.42;80.23
82033;BME280;71595;52.180;4.512;2024-03-02T07:48:07;100030.56;;;6.43;80.14
82033;BME280;71595;52.180;4.512;2024-03-02T07:50:38;100029.25;;;6.50;79.58
82033;BME280;71595;52.180;4.512;2024-03-02T07:53:04;100031.47;;;6.56;79.96
82033;BME280;71595;52.180;4.512;2024-03-02T07:55:31;100036.44;;;6.63;79.55
82033;BME280;71595;52.180;4.512;2024-03-02T07:57:56;100029.28;;;6.71;78.92
82033;BME280;71595;52.180;4.512;2024-03-02T08:00:23;100037.97;;;6.73;79.18
82033;BME280;71595;52.180;4.512;2024-03-02T08:02:49;100037.13;;;6.81;78.86
82033;BME280;71595;52.180;4.512;2024-03-02T08:05:16;100044.97;;;6.91;79.51
82033;BME280;71595;52.180;4.512;2024-03-02T08:07:42;100046.03;;;6.99;79.33
82033;BME280;71595;52.180;4.512;2024-03-02T08:10:09;100035.06;;;6.99;79.22
82033;BME280;71595;52.180;4.512;2024-03-02T08:12:34;100035.84;;;6.99;78.47
82033;BME280;71595;52.180;4.512;2024-03-02T08:14:59;100037.47;;;7.00;78.44
82033;BME280;71595;52.180;4.512;2024-03-02T08:17:25;100030.34;;;6.99;78.61
82033;BME280;71595;52.180;4.512;2024-03-02T08:19:50;100035.84;;;6.99;78.49
82033;BME280;71595;52.180;4.512;2024-03-02T08:22:16;100038.41;;;7.05;78.34
82033;BME280;71595;52.180;4.512;2024-03-02T08:24:41;100032.75;;;7.01;77.70
82033;BME280;71595;52.180;4.512;2024-03-02T08:27:09;100039.00;;;7.10;79.30
82033;BME280;71595;52.180;4.512;2024-03-02T08:29:34;100040.59;;;7.11;78.79
82033;BME280;71595;52.180;4.512;2024-03-02T08:32:00;100040.66;;;7.02;79.31
82033;BME280;71595;52.180;4.512;2024-03-02T08:34:25;100046.03;;;6.99;78.79
82033;BME280;71595;52.180;4.512;2024-03-02T08:36:50;100035.19;;;7.02;78.36
82033;BME280;71595;52.180;4.512;2024-03-02T08:39:16;100041.75;;;7.10;78.45
82033;BME280;71595;52.180;4.512;2024-03-02T08:41:45;100043.22;;;7.08;78.10
82033;BME280;71595;52.180;4.512;2024-03-02T08:47:33;100037.06;;;7.11;77.75
82033;BME280;71595;52.180;4.512;2024-03-02T08:49:59;100046.22;;;7.15;77.56
82033;BME280;71595;52.180;4.512;2024-03-02T08:52:25;100046.03;;;7.20;78.16
82033;BME280;71595;52.180;4.512;2024-03-02T08:54:50;100047.28;;;7.23;77.71
82033;BME280;71595;52.180;4.512;2024-03-02T08:57:15;100049.69;;;7.24;77.34
82033;BME280;71595;52.180;4.512;2024-03-02T08:59:40;100050.66;;;7.28;76.97
82033;BME280;71595;52.180;4.512;2024-03-02T09:02:06;100051.94;;;7.31;77.34
82033;BME280;71595;52.180;4.512;2024-03-02T09:04:32;100039.09;;;7.35;77.29
82033;BME280;71595;52.180;4.512;2024-03-02T09:06:57;100048.41;;;7.43;76.44
82033;BME280;71595;52.180;4.512;2024-03-02T09:09:22;100046.13;;;7.45;76.83
82033;BME280;71595;52.180;4.512;2024-03-02T09:11:48;100054.19;;;7.50;76.92
82033;BME280;71595;52.180;4.512;2024-03-02T09:14:13;100047.31;;;7.56;77.04
82033;BME280;71595;52.180;4.512;2024-03-02T09:16:40;100055.69;;;7.60;76.44
82033;BME280;71595;52.180;4.512;2024-03-02T09:19:05;100057.88;;;7.66;75.95
82033;BME280;71595;52.180;4.512;2024-03-02T09:21:30;100055.63;;;7.68;75.72
82033;BME280;71595;52.180;4.512;2024-03-02T09:23:56;100053.53;;;7.65;74.86
82033;BME280;71595;52.180;4.512;2024-03-02T09:26:22;100048.16;;;7.69;74.79
82033;BME280;71595;52.180;4.512;2024-03-02T09:28:50;100049.44;;;7.71;75.30
82033;BME280;71595;52.180;4.512;2024-03-02T09:31:15;100051.97;;;7.77;74.91
82033;BME280;71595;52.180;4.512;2024-03-02T09:33:40;100063.91;;;7.81;74.75
82033;BME280;71595;52.180;4.512;2024-03-02T09:36:12;100060.13;;;7.85;75.06
82033;BME280;71595;52.180;4.512;2024-03-02T09:38:41;100074.31;;;7.87;73.66
82033;BME280;71595;52.180;4.512;2024-03-02T09:41:06;100061.63;;;7.95;74.28
82033;BME280;71595;52.180;4.512;2024-03-02T09:43:32;100067.69;;;8.01;74.48
82033;BME280;71595;52.180;4.512;2024-03-02T09:45:57;100071.72;;;8.03;73.38
82033;BME280;71595;52.180;4.512;2024-03-02T09:48:23;100075.06;;;8.09;74.00
82033;BME280;71595;52.180;4.512;2024-03-02T09:50:51;100069.66;;;8.13;73.74
82033;BME280;71595;52.180;4.512;2024-03-02T09:53:18;100075.44;;;8.20;74.10
82033;BME280;71595;52.180;4.512;2024-03-02T09:55:47;100081.81;;;8.24;73.26
82033;BME280;71595;52.180;4.512;2024-03-02T09:58:12;100081.16;;;8.27;72.63
82033;BME280;71595;52.180;4.512;2024-03-02T10:00:37;100074.50;;;8.28;72.85
82033;BME280;71595;52.180;4.512;2024-03-02T10:03:03;100073.94;;;8.35;72.04
82033;BME280;71595;52.180;4.512;2024-03-02T10:05:30;100072.91;;;8.39;72.23
82033;BME280;71595;52.180;4.512;2024-03-02T10:07:59;100081.44;;;8.47;71.87
82033;BME280;71595;52.180;4.512;2024-03-02T10:10:34;100081.88;;;8.49;71.75
82033;BME280;71595;52.180;4.512;2024-03-02T10:13:04;100080.06;;;8.53;71.53
82033;BME280;71595;52.180;4.512;2024-03-02T10:15:32;100077.06;;;8.58;71.01
82033;BME280;71595;52.180;4.512;2024-03-02T10:17:58;100083.50;;;8.62;70.16
82033;BME280;71595;52.180;4.512;2024-03-02T10:20:24;100076.13;;;8.66;70.34
82033;BME280;71595;52.180;4.512;2024-03-02T10:22:50;100078.31;;;8.73;70.33
82033;BME280;71595;52.180;4.512;2024-03-02T10:25:32;100080.03;;;8.77;70.83
82033;BME280;71595;52.180;4.512;2024-03-02T10:28:01;100078.19;;;8.81;69.54
82033;BME280;71595;52.180;4.512;2024-03-02T10:30:27;100068.88;;;8.86;69.17
82033;BME280;71595;52.180;4.512;2024-03-02T10:32:55;100048.56;;;8.91;68.80
82033;BME280;71595;52.180;4.512;2024-03-02T10:35:22;100052.69;;;8.97;69.62
82033;BME280;71595;52.180;4.512;2024-03-02T10:37:52;100046.94;;;9.02;68.81
82033;BME280;71595;52.180;4.512;2024-03-02T10:40:18;100052.22;;;9.07;68.70
82033;BME280;71595;52.180;4.512;2024-03-02T10:42:44;100053.09;;;9.11;67.98
82033;BME280;71595;52.180;4.512;2024-03-02T10:45:11;100051.28;;;9.15;68.23
82033;BME280;71595;52.180;4.512;2024-03-02T10:47:38;100047.72;;;9.15;67.54
82033;BME280;71595;52.180;4.512;2024-03-02T10:50:07;100052.41;;;9.14;67.41
82033;BME280;71595;52.180;4.512;2024-03-02T10:52:37;100042.88;;;9.24;66.74
82033;BME280;71595;52.180;4.512;2024-03-02T10:55:06;100039.16;;;9.32;66.73
82033;BME280;71595;52.180;4.512;2024-03-02T10:57:40;100044.53;;;9.41;65.60
82033;BME280;71595;52.180;4.512;2024-03-02T11:00:08;100050.94;;;9.45;66.09
82033;BME280;71595;52.180;4.512;2024-03-02T11:02:43;100046.94;;;9.43;65.67
82033;BME280;71595;52.180;4.512;2024-03-02T11:05:11;100048.88;;;9.42;65.56
82033;BME280;71595;52.180;4.512;2024-03-02T11:07:41;100046.69;;;9.48;65.69
82033;BME280;71595;52.180;4.512;2024-03-02T11:10:08;100044.00;;;9.51;65.10
82033;BME280;71595;52.180;4.512;2024-03-02T11:12:39;100050.78;;;9.54;64.48
82033;BME280;71595;52.180;4.512;2024-03-02T11:15:10;100043.75;;;9.57;64.15
82033;BME280;71595;52.180;4.512;2024-03-02T11:17:39;100037.19;;;9.61;63.22
82033;BME280;71595;52.180;4.512;2024-03-02T11:20:09;100031.88;;;9.68;63.50
82033;BME280;71595;52.180;4.512;2024-03-02T11:22:36;100036.31;;;9.73;63.76
82033;BME280;71595;52.180;4.512;2024-03-02T11:25:02;100036.75;;;9.75;63.08
82033;BME280;71595;52.180;4.512;2024-03-02T11:33:06;100042.84;;;9.97;62.89
82033;BME280;71595;52.180;4.512;2024-03-02T11:35:43;100031.19;;;10.03;62.64
82033;BME280;71595;52.180;4.512;2024-03-02T11:38:11;100032.44;;;10.06;62.33
82033;BME280;71595;52.180;4.512;2024-03-02T11:40:39;100037.50;;;10.04;62.41
82033;BME280;71595;52.180;4.512;2024-03-02T11:43:04;100032.88;;;10.08;62.48
82033;BME280;71595;52.180;4.512;2024-03-02T11:45:30;100037.94;;;10.06;62.36
82033;BME280;71595;52.180;4.512;2024-03-02T11:48:00;100023.44;;;10.09;62.12
82033;BME280;71595;52.180;4.512;2024-03-02T11:50:36;100020.41;;;10.14;62.18
82033;BME280;71595;52.180;4.512;2024-03-02T11:53:06;100020.88;;;10.16;61.03
82033;BME280;71595;52.180;4.512;2024-03-02T11:55:34;100031.63;;;10.21;61.14
82033;BME280;71595;52.180;4.512;2024-03-02T11:58:04;100004.22;;;10.29;60.87
82033;BME280;71595;52.180;4.512;2024-03-02T12:00:29;100008.22;;;10.31;60.57
82033;BME280;71595;52.180;4.512;2024-03-02T12:03:00;100009.66;;;10.41;60.79
82033;BME280;71595;52.180;4.512;2024-03-02T12:05:27;100017.22;;;10.44;59.50
82033;BME280;71595;52.180;4.512;2024-03-02T12:08:00;100001.53;;;10.48;58.98
82033;BME280;71595;52.180;4.512;2024-03-02T12:10:26;100005.69;;;10.58;59.72
82033;BME280;71595;52.180;4.512;2024-03-02T12:12:56;100005.97;;;10.53;58.91
82033;BME280;71595;52.180;4.512;2024-03-02T12:15:29;99990.66;;;10.55;57.97
82033;BME280;71595;52.180;4.512;2024-03-02T12:17:56;99993.06;;;10.57;58.05
82033;BME280;71595;52.180;4.512;2024-03-02T12:20:22;99984.06;;;10.60;57.77
82033;BME280;71595;52.180;4.512;2024-03-02T12:22:50;99989.22;;;10.61;56.97
82033;BME280;71595;52.180;4.512;2024-03-02T12:25:17;99991.25;;;10.65;57.14
82033;BME280;71595;52.180;4.512;2024-03-02T12:27:43;99975.19;;;10.70;56.52
82033;BME280;71595;52.180;4.512;2024-03-02T12:30:09;99964.97;;;10.71;57.35
82033;BME280;71595;52.180;4.512;2024-03-02T12:32:37;99969.06;;;10.77;58.16
82033;BME280;71595;52.180;4.512;2024-03-02T12:35:04;99965.28;;;10.85;58.35
82033;BME280;71595;52.180;4.512;2024-03-02T12:37:30;99976.03;;;10.90;58.39
82033;BME280;71595;52.180;4.512;2024-03-02T12:39:55;99974.81;;;10.88;57.10
82033;BME280;71595;52.180;4.512;2024-03-02T12:42:21;99968.47;;;10.87;57.76
82033;BME280;71595;52.180;4.512;2024-03-02T12:44:46;99963.66;;;10.84;57.00
82033;BME280;71595;52.180;4.512;2024-03-02T12:47:12;99971.38;;;10.94;57.48
82033;BME280;71595;52.180;4.512;2024-03-02T12:49:40;99967.09;;;10.97;57.56
82033;BME280;71595;52.180;4.512;2024-03-02T12:52:05;99980.69;;;10.86;57.08
82033;BME280;71595;52.180;4.512;2024-03-02T12:54:31;99978.34;;;10.88;56.86
82033;BME280;71595;52.180;4.512;2024-03-02T12:56:56;99971.09;;;10.80;57.09
82033;BME280;71595;52.180;4.512;2024-03-02T12:59:24;99967.72;;;10.71;56.81
82033;BME280;71595;52.180;4.512;2024-03-02T13:01:55;99978.97;;;10.62;57.30
82033;BME280;71595;52.180;4.512;2024-03-02T13:04:28;99971.69;;;10.54;57.29
82033;BME280;71595;52.180;4.512;2024-03-02T13:06:55;99975.41;;;10.61;57.86
82033;BME280;71595;52.180;4.512;2024-03-02T13:09:23;99966.84;;;10.67;58.19
82033;BME280;71595;52.180;4.512;2024-03-02T13:11:51;99953.03;;;10.67;57.42
82033;BME280;71595;52.180;4.512;2024-03-02T13:14:17;99947.50;;;10.67;57.78
82033;BME280;71595;52.180;4.512;2024-03-02T13:16:42;99945.13;;;10.65;57.62